sensor_id;sensor_type;location;lat;lon;timestamp;temperature;humidity
9095;DHT22;4583;49.796;9.902;2023-08-01T00:02:24;19.60;99.90
9095;DHT22;4583;49.796;9.902;2023-08-01T00:12:27;19.50;99.90
9095;DHT22;4583;49.796;9.902;2023-08-01T00:22:29;19.50;99.90
9095;DHT22;4583;49.796;9.902;2023-08-01T00:32:31;19.50;99.90
9095;DHT22;4583;49.796;9.902;2023-08-01T00:42:36;19.50;99.90
9095;DHT22;4583;49.796;9.902;2023-08-01T00:52:38;19.40;99.90
9095;DHT22;4583;49.796;9.902;2023-08-01T01:02:40;19.40;99.90
9095;DHT22;4583;49.796;9.902;2023-08-01T01:12:42;19.30;99.90
9095;DHT22;4583;49.796;9.902;2023-08-01T01:22:43;19.30;99.90
9095;DHT22;4583;49.796;9.902;2023-08-01T01:32:45;19.30;99.90
9095;DHT22;4583;49.796;9.902;2023-08-01T01:42:47;19.30;99.90
9095;DHT22;4583;49.796;9.902;2023-08-01T01:52:50;19.30;99.90
9095;DHT22;4583;49.796;9.902;2023-08-01T02:02:52;19.30;99.90
9095;DHT22;4583;49.796;9.902;2023-08-01T02:12:54;19.30;99.90
9095;DHT22;4583;49.796;9.902;2023-08-01T02:22:55;19.20;99.90
9095;DHT22;4583;49.796;9.902;2023-08-01T02:32:57;19.30;99.90
9095;DHT22;4583;49.796;9.902;2023-08-01T02:42:59;19.30;99.90
9095;DHT22;4583;49.796;9.902;2023-08-01T02:53:01;19.20;99.90
9095;DHT22;4583;49.796;9.902;2023-08-01T03:03:02;19.20;99.90
9095;DHT22;4583;49.796;9.902;2023-08-01T03:13:04;19.20;99.90
9095;DHT22;4583;49.796;9.902;2023-08-01T03:23:06;19.10;99.90
9095;DHT22;4583;49.796;9.902;2023-08-01T03:33:08;19.10;99.90
9095;DHT22;4583;49.796;9.902;2023-08-01T03:43:10;19.10;99.90
9095;DHT22;4583;49.796;9.902;2023-08-01T03:53:12;19.10;99.90
9095;DHT22;4583;49.796;9.902;2023-08-01T04:03:13;19.00;99.90
9095;DHT22;4583;49.796;9.902;2023-08-01T04:13:16;19.00;99.90
9095;DHT22;4583;49.796;9.902;2023-08-01T04:23:17;19.00;99.90
9095;DHT22;4583;49.796;9.902;2023-08-01T04:33:19;19.00;99.90
9095;DHT22;4583;49.796;9.902;2023-08-01T04:43:21;19.00;99.90
9095;DHT22;4583;49.796;9.902;2023-08-01T04:53:23;18.90;99.90
9095;DHT22;4583;49.796;9.902;2023-08-01T05:03:24;18.90;99.90
9095;DHT22;4583;49.796;9.902;2023-08-01T05:13:26;18.90;99.90
9095;DHT22;4583;49.796;9.902;2023-08-01T05:23:28;19.00;99.90
9095;DHT22;4583;49.796;9.902;2023-08-01T05:33:30;18.90;99.90
9095;DHT22;4583;49.796;9.902;2023-08-01T05:43:33;18.90;99.90
9095;DHT22;4583;49.796;9.902;2023-08-01T05:53:36;18.90;99.90
9095;DHT22;4583;49.796;9.902;2023-08-01T06:03:38;18.90;99.90
9095;DHT22;4583;49.796;9.902;2023-08-01T06:13:41;19.00;99.90
9095;DHT22;4583;49.796;9.902;2023-08-01T06:23:42;19.00;99.90
9095;DHT22;4583;49.796;9.902;2023-08-01T06:33:44;19.00;99.90
9095;DHT22;4583;49.796;9.902;2023-08-01T06:43:46;19.00;99.90
9095;DHT22;4583;49.796;9.902;2023-08-01T06:53:48;19.00;99.90
9095;DHT22;4583;49.796;9.902;2023-08-01T07:03:49;19.00;99.90
9095;DHT22;4583;49.796;9.902;2023-08-01T07:13:53;19.00;99.90
9095;DHT22;4583;49.796;9.902;2023-08-01T07:23:55;19.00;99.90
9095;DHT22;4583;49.796;9.902;2023-08-01T07:33:57;19.00;99.90
9095;DHT22;4583;49.796;9.902;2023-08-01T07:43:58;19.00;99.90
9095;DHT22;4583;49.796;9.902;2023-08-01T07:54:02;19.10;99.90
9095;DHT22;4583;49.796;9.902;2023-08-01T08:04:04;19.10;99.90
9095;DHT22;4583;49.796;9.902;2023-08-01T08:14:05;19.40;99.90
9095;DHT22;4583;49.796;9.902;2023-08-01T08:24:07;19.70;99.90
9095;DHT22;4583;49.796;9.902;2023-08-01T08:34:09;19.70;99.90
9095;DHT22;4583;49.796;9.902;2023-08-01T08:44:16;19.80;99.90
9095;DHT22;4583;49.796;9.902;2023-08-01T08:54:19;19.90;99.90
9095;DHT22;4583;49.796;9.902;2023-08-01T09:04:21;20.00;99.90
9095;DHT22;4583;49.796;9.902;2023-08-01T09:14:22;19.90;99.90
9095;DHT22;4583;49.796;9.902;2023-08-01T09:24:24;19.80;99.90
9095;DHT22;4583;49.796;9.902;2023-08-01T09:34:27;19.30;99.90
9095;DHT22;4583;49.796;9.902;2023-08-01T09:44:30;18.60;99.90
9095;DHT22;4583;49.796;9.902;2023-08-01T09:54:32;18.40;99.90
9095;DHT22;4583;49.796;9.902;2023-08-01T10:04:35;18.60;99.90
9095;DHT22;4583;49.796;9.902;2023-08-01T10:14:38;18.70;99.90
9095;DHT22;4583;49.796;9.902;2023-08-01T10:24:41;19.40;99.90
9095;DHT22;4583;49.796;9.902;2023-08-01T10:34:51;20.10;99.90
9095;DHT22;4583;49.796;9.902;2023-08-01T10:44:53;20.50;99.90
9095;DHT22;4583;49.796;9.902;2023-08-01T10:55:02;20.40;99.90
9095;DHT22;4583;49.796;9.902;2023-08-01T11:05:07;20.30;99.90
9095;DHT22;4583;49.796;9.902;2023-08-01T11:15:14;20.40;99.90
9095;DHT22;4583;49.796;9.902;2023-08-01T11:25:16;20.70;99.80
9095;DHT22;4583;49.796;9.902;2023-08-01T11:35:18;20.90;99.00
9095;DHT22;4583;49.796;9.902;2023-08-01T11:45:21;21.00;98.80
9095;DHT22;4583;49.796;9.902;2023-08-01T11:55:25;21.70;98.30
9095;DHT22;4583;49.796;9.902;2023-08-01T12:05:27;21.90;96.80
9095;DHT22;4583;49.796;9.902;2023-08-01T12:15:30;21.60;96.70
9095;DHT22;4583;49.796;9.902;2023-08-01T12:25:31;21.60;96.40
9095;DHT22;4583;49.796;9.902;2023-08-01T12:35:33;21.70;95.90
9095;DHT22;4583;49.796;9.902;2023-08-01T12:45:35;21.80;95.90
9095;DHT22;4583;49.796;9.902;2023-08-01T12:55:37;22.20;94.90
9095;DHT22;4583;49.796;9.902;2023-08-01T13:05:40;22.50;91.70
9095;DHT22;4583;49.796;9.902;2023-08-01T13:15:42;22.80;85.80
9095;DHT22;4583;49.796;9.902;2023-08-01T13:25:44;22.80;77.00
9095;DHT22;4583;49.796;9.902;2023-08-01T13:35:51;22.90;72.70
9095;DHT22;4583;49.796;9.902;2023-08-01T13:45:53;23.10;69.60
9095;DHT22;4583;49.796;9.902;2023-08-01T13:55:55;23.30;65.50
9095;DHT22;4583;49.796;9.902;2023-08-01T14:06:07;23.60;62.70
9095;DHT22;4583;49.796;9.902;2023-08-01T14:16:09;23.90;60.40
9095;DHT22;4583;49.796;9.902;2023-08-01T14:26:11;24.60;59.80
9095;DHT22;4583;49.796;9.902;2023-08-01T14:36:13;23.90;59.80
9095;DHT22;4583;49.796;9.902;2023-08-01T14:46:15;23.80;64.70
9095;DHT22;4583;49.796;9.902;2023-08-01T14:56:17;23.10;67.40
9095;DHT22;4583;49.796;9.902;2023-08-01T15:06:19;23.60;68.50
9095;DHT22;4583;49.796;9.902;2023-08-01T15:16:20;23.40;66.40
9095;DHT22;4583;49.796;9.902;2023-08-01T15:26:22;22.90;64.60
9095;DHT22;4583;49.796;9.902;2023-08-01T15:36:28;23.10;64.00
9095;DHT22;4583;49.796;9.902;2023-08-01T15:46:30;23.50;63.20
9095;DHT22;4583;49.796;9.902;2023-08-01T15:56:31;22.90;62.90
9095;DHT22;4583;49.796;9.902;2023-08-01T16:06:33;22.50;65.50
9095;DHT22;4583;49.796;9.902;2023-08-01T16:16:35;21.20;74.60
9095;DHT22;4583;49.796;9.902;2023-08-01T16:26:37;19.10;91.10
9095;DHT22;4583;49.796;9.902;2023-08-01T16:36:38;18.70;97.10
9095;DHT22;4583;49.796;9.902;2023-08-01T16:46:41;19.00;97.60
9095;DHT22;4583;49.796;9.902;2023-08-01T16:56:42;19.20;98.20
9095;DHT22;4583;49.796;9.902;2023-08-01T17:06:45;19.40;98.50
9095;DHT22;4583;49.796;9.902;2023-08-01T17:16:47;19.30;98.60
9095;DHT22;4583;49.796;9.902;2023-08-01T17:26:49;19.20;98.60
9095;DHT22;4583;49.796;9.902;2023-08-01T17:36:51;19.10;98.60
9095;DHT22;4583;49.796;9.902;2023-08-01T17:46:53;19.20;98.90
9095;DHT22;4583;49.796;9.902;2023-08-01T17:56:55;19.40;98.90
9095;DHT22;4583;49.796;9.902;2023-08-01T18:06:57;19.70;98.60
9095;DHT22;4583;49.796;9.902;2023-08-01T18:16:59;19.60;98.50
9095;DHT22;4583;49.796;9.902;2023-08-01T18:27:00;19.60;98.40
9095;DHT22;4583;49.796;9.902;2023-08-01T18:37:02;19.30;98.30
9095;DHT22;4583;49.796;9.902;2023-08-01T18:47:04;19.20;98.30
9095;DHT22;4583;49.796;9.902;2023-08-01T18:57:06;19.10;98.30
9095;DHT22;4583;49.796;9.902;2023-08-01T19:07:08;18.90;98.30
9095;DHT22;4583;49.796;9.902;2023-08-01T19:17:10;18.90;98.30
9095;DHT22;4583;49.796;9.902;2023-08-01T19:27:11;19.00;98.30
9095;DHT22;4583;49.796;9.902;2023-08-01T19:37:13;19.00;97.90
9095;DHT22;4583;49.796;9.902;2023-08-01T19:47:15;19.00;97.90
9095;DHT22;4583;49.796;9.902;2023-08-01T19:57:16;19.00;98.00
9095;DHT22;4583;49.796;9.902;2023-08-01T20:07:18;18.80;98.20
9095;DHT22;4583;49.796;9.902;2023-08-01T20:17:20;18.90;98.80
9095;DHT22;4583;49.796;9.902;2023-08-01T20:27:22;18.80;98.50
9095;DHT22;4583;49.796;9.902;2023-08-01T20:37:23;18.90;98.40
9095;DHT22;4583;49.796;9.902;2023-08-01T20:47:25;18.80;98.30
9095;DHT22;4583;49.796;9.902;2023-08-01T20:57:27;18.70;98.40
9095;DHT22;4583;49.796;9.902;2023-08-01T21:07:29;18.70;98.40
9095;DHT22;4583;49.796;9.902;2023-08-01T21:17:30;18.50;98.10
9095;DHT22;4583;49.796;9.902;2023-08-01T21:27:32;18.40;98.20
9095;DHT22;4583;49.796;9.902;2023-08-01T21:37:34;18.40;98.30
9095;DHT22;4583;49.796;9.902;2023-08-01T21:47:36;18.30;98.20
9095;DHT22;4583;49.796;9.902;2023-08-01T21:57:38;18.30;98.50
9095;DHT22;4583;49.796;9.902;2023-08-01T22:07:40;18.30;98.40
9095;DHT22;4583;49.796;9.902;2023-08-01T22:17:41;18.30;98.50
9095;DHT22;4583;49.796;9.902;2023-08-01T22:27:43;18.30;98.40
9095;DHT22;4583;49.796;9.902;2023-08-01T22:37:45;18.20;98.50
9095;DHT22;4583;49.796;9.902;2023-08-01T22:47:51;18.20;98.60
9095;DHT22;4583;49.796;9.902;2023-08-01T22:57:53;18.20;98.60
9095;DHT22;4583;49.796;9.902;2023-08-01T23:07:55;18.20;98.50
9095;DHT22;4583;49.796;9.902;2023-08-01T23:17:58;18.10;98.20
9095;DHT22;4583;49.796;9.902;2023-08-01T23:28:00;18.00;98.20
9095;DHT22;4583;49.796;9.902;2023-08-01T23:48:04;18.00;98.30
9095;DHT22;4583;49.796;9.902;2023-08-01T23:58:06;17.90;98.30
